sensor_id;sensor_type;location;lat;lon;timestamp;P1;durP1;ratioP1;P2;durP2;ratioP2
80725;SDS011;70113;59.928;10.878;2023-09-18T00:02:24;3.20;;;0.55;;
80725;SDS011;70113;59.928;10.878;2023-09-18T00:04:51;1.98;;;0.60;;
80725;SDS011;70113;59.928;10.878;2023-09-18T00:07:17;3.67;;;1.00;;
80725;SDS011;70113;59.928;10.878;2023-09-18T00:09:43;1.42;;;0.60;;
80725;SDS011;70113;59.928;10.878;2023-09-18T00:12:08;2.03;;;0.70;;
80725;SDS011;70113;59.928;10.878;2023-09-18T00:14:38;2.17;;;0.80;;
80725;SDS011;70113;59.928;10.878;2023-09-18T00:17:03;1.90;;;0.70;;
80725;SDS011;70113;59.928;10.878;2023-09-18T00:19:29;1.25;;;0.50;;
80725;SDS011;70113;59.928;10.878;2023-09-18T00:21:56;1.88;;;0.50;;
80725;SDS011;70113;59.928;10.878;2023-09-18T00:24:26;1.92;;;0.70;;
80725;SDS011;70113;59.928;10.878;2023-09-18T00:26:53;1.25;;;0.60;;
80725;SDS011;70113;59.928;10.878;2023-09-18T00:29:19;2.13;;;0.40;;
80725;SDS011;70113;59.928;10.878;2023-09-18T00:31:45;2.20;;;0.60;;
80725;SDS011;70113;59.928;10.878;2023-09-18T00:34:11;0.90;;;0.50;;
80725;SDS011;70113;59.928;10.878;2023-09-18T00:36:36;1.75;;;0.60;;
80725;SDS011;70113;59.928;10.878;2023-09-18T00:39:02;2.60;;;0.70;;
80725;SDS011;70113;59.928;10.878;2023-09-18T00:41:28;1.52;;;0.50;;
80725;SDS011;70113;59.928;10.878;2023-09-18T00:43:54;2.88;;;0.95;;
80725;SDS011;70113;59.928;10.878;2023-09-18T00:46:20;2.03;;;0.68;;
80725;SDS011;70113;59.928;10.878;2023-09-18T00:48:47;3.55;;;0.85;;
80725;SDS011;70113;59.928;10.878;2023-09-18T00:51:14;1.35;;;0.50;;
80725;SDS011;70113;59.928;10.878;2023-09-18T00:53:42;2.92;;;0.70;;
80725;SDS011;70113;59.928;10.878;2023-09-18T00:56:10;1.00;;;0.50;;
80725;SDS011;70113;59.928;10.878;2023-09-18T00:58:36;3.05;;;0.50;;
80725;SDS011;70113;59.928;10.878;2023-09-18T01:01:03;2.13;;;0.60;;
80725;SDS011;70113;59.928;10.878;2023-09-18T01:03:29;4.20;;;0.80;;
80725;SDS011;70113;59.928;10.878;2023-09-18T01:05:55;1.30;;;0.60;;
80725;SDS011;70113;59.928;10.878;2023-09-18T01:08:21;1.80;;;0.65;;
80725;SDS011;70113;59.928;10.878;2023-09-18T01:13:37;1.33;;;0.40;;
80725;SDS011;70113;59.928;10.878;2023-09-18T01:16:13;3.40;;;0.80;;
80725;SDS011;70113;59.928;10.878;2023-09-18T01:18:49;1.85;;;0.57;;
80725;SDS011;70113;59.928;10.878;2023-09-18T01:21:15;1.40;;;0.45;;
80725;SDS011;70113;59.928;10.878;2023-09-18T01:23:42;2.15;;;0.55;;
80725;SDS011;70113;59.928;10.878;2023-09-18T01:26:07;2.17;;;0.60;;
80725;SDS011;70113;59.928;10.878;2023-09-18T01:28:33;2.15;;;0.70;;
80725;SDS011;70113;59.928;10.878;2023-09-18T01:30:59;2.88;;;0.70;;
80725;SDS011;70113;59.928;10.878;2023-09-18T01:33:24;1.30;;;0.57;;
80725;SDS011;70113;59.928;10.878;2023-09-18T01:35:52;1.63;;;0.55;;
80725;SDS011;70113;59.928;10.878;2023-09-18T01:38:21;1.50;;;0.60;;
80725;SDS011;70113;59.928;10.878;2023-09-18T01:40:48;2.03;;;0.50;;
80725;SDS011;70113;59.928;10.878;2023-09-18T01:43:14;2.08;;;0.70;;
80725;SDS011;70113;59.928;10.878;2023-09-18T01:45:39;4.00;;;0.70;;
80725;SDS011;70113;59.928;10.878;2023-09-18T01:48:06;3.05;;;0.70;;
80725;SDS011;70113;59.928;10.878;2023-09-18T01:50:31;1.25;;;0.55;;
80725;SDS011;70113;59.928;10.878;2023-09-18T01:52:58;1.45;;;0.50;;
80725;SDS011;70113;59.928;10.878;2023-09-18T01:55:24;2.45;;;0.55;;
80725;SDS011;70113;59.928;10.878;2023-09-18T01:57:50;2.75;;;0.65;;
80725;SDS011;70113;59.928;10.878;2023-09-18T02:00:15;4.70;;;0.90;;
80725;SDS011;70113;59.928;10.878;2023-09-18T02:02:41;2.13;;;0.60;;
80725;SDS011;70113;59.928;10.878;2023-09-18T02:05:07;1.55;;;0.65;;
80725;SDS011;70113;59.928;10.878;2023-09-18T02:07:33;1.00;;;0.52;;
80725;SDS011;70113;59.928;10.878;2023-09-18T02:09:59;2.67;;;0.60;;
80725;SDS011;70113;59.928;10.878;2023-09-18T02:12:24;1.10;;;0.60;;
80725;SDS011;70113;59.928;10.878;2023-09-18T02:14:50;2.88;;;0.80;;
80725;SDS011;70113;59.928;10.878;2023-09-18T02:17:16;2.53;;;0.63;;
80725;SDS011;70113;59.928;10.878;2023-09-18T02:19:41;3.65;;;0.80;;
80725;SDS011;70113;59.928;10.878;2023-09-18T02:22:08;1.83;;;0.50;;
80725;SDS011;70113;59.928;10.878;2023-09-18T02:24:34;1.48;;;0.60;;
80725;SDS011;70113;59.928;10.878;2023-09-18T02:27:00;3.78;;;0.73;;
80725;SDS011;70113;59.928;10.878;2023-09-18T02:29:25;3.90;;;0.80;;
80725;SDS011;70113;59.928;10.878;2023-09-18T02:31:51;1.38;;;0.60;;
80725;SDS011;70113;59.928;10.878;2023-09-18T02:34:16;2.05;;;0.70;;
80725;SDS011;70113;59.928;10.878;2023-09-18T02:36:44;1.42;;;0.65;;
80725;SDS011;70113;59.928;10.878;2023-09-18T02:39:10;1.55;;;0.73;;
80725;SDS011;70113;59.928;10.878;2023-09-18T02:41:35;2.30;;;0.85;;
80725;SDS011;70113;59.928;10.878;2023-09-18T02:44:01;1.95;;;0.77;;
80725;SDS011;70113;59.928;10.878;2023-09-18T02:46:27;2.53;;;0.60;;
80725;SDS011;70113;59.928;10.878;2023-09-18T02:48:52;2.10;;;0.65;;
80725;SDS011;70113;59.928;10.878;2023-09-18T02:51:18;2.53;;;0.70;;
80725;SDS011;70113;59.928;10.878;2023-09-18T02:53:43;2.58;;;0.60;;
80725;SDS011;70113;59.928;10.878;2023-09-18T02:56:09;3.17;;;0.65;;
80725;SDS011;70113;59.928;10.878;2023-09-18T02:58:34;1.08;;;0.50;;
80725;SDS011;70113;59.928;10.878;2023-09-18T03:01:00;2.53;;;0.63;;
80725;SDS011;70113;59.928;10.878;2023-09-18T03:03:28;1.90;;;0.65;;
80725;SDS011;70113;59.928;10.878;2023-09-18T03:05:59;2.70;;;0.68;;
80725;SDS011;70113;59.928;10.878;2023-09-18T03:08:26;2.17;;;0.65;;
80725;SDS011;70113;59.928;10.878;2023-09-18T03:10:51;2.22;;;0.60;;
80725;SDS011;70113;59.928;10.878;2023-09-18T03:13:17;1.38;;;0.50;;
80725;SDS011;70113;59.928;10.878;2023-09-18T03:15:46;1.45;;;0.60;;
80725;SDS011;70113;59.928;10.878;2023-09-18T03:18:14;1.25;;;0.50;;
80725;SDS011;70113;59.928;10.878;2023-09-18T03:48:18;1.70;;;0.70;;
80725;SDS011;70113;59.928;10.878;2023-09-18T03:50:47;1.42;;;0.52;;
80725;SDS011;70113;59.928;10.878;2023-09-18T03:53:12;1.38;;;0.60;;
80725;SDS011;70113;59.928;10.878;2023-09-18T03:55:38;1.83;;;0.50;;
80725;SDS011;70113;59.928;10.878;2023-09-18T03:58:04;2.13;;;0.77;;
80725;SDS011;70113;59.928;10.878;2023-09-18T04:00:30;1.27;;;0.60;;
80725;SDS011;70113;59.928;10.878;2023-09-18T04:02:56;2.70;;;0.57;;
80725;SDS011;70113;59.928;10.878;2023-09-18T04:05:21;3.15;;;0.80;;
80725;SDS011;70113;59.928;10.878;2023-09-18T04:07:47;0.95;;;0.50;;
80725;SDS011;70113;59.928;10.878;2023-09-18T04:10:16;1.63;;;0.70;;
80725;SDS011;70113;59.928;10.878;2023-09-18T04:12:48;1.45;;;0.68;;
80725;SDS011;70113;59.928;10.878;2023-09-18T04:15:16;2.20;;;0.70;;
80725;SDS011;70113;59.928;10.878;2023-09-18T04:17:43;2.17;;;0.70;;
80725;SDS011;70113;59.928;10.878;2023-09-18T04:20:10;2.45;;;0.70;;
80725;SDS011;70113;59.928;10.878;2023-09-18T04:22:36;3.15;;;0.80;;
80725;SDS011;70113;59.928;10.878;2023-09-18T04:25:02;2.70;;;1.02;;
80725;SDS011;70113;59.928;10.878;2023-09-18T04:27:30;4.53;;;0.77;;
80725;SDS011;70113;59.928;10.878;2023-09-18T04:29:56;2.83;;;0.95;;
80725;SDS011;70113;59.928;10.878;2023-09-18T04:32:23;5.30;;;0.77;;
80725;SDS011;70113;59.928;10.878;2023-09-18T04:34:48;1.52;;;0.80;;
80725;SDS011;70113;59.928;10.878;2023-09-18T04:37:14;1.98;;;0.70;;
80725;SDS011;70113;59.928;10.878;2023-09-18T04:39:40;4.90;;;0.90;;
80725;SDS011;70113;59.928;10.878;2023-09-18T04:42:05;4.28;;;0.80;;
80725;SDS011;70113;59.928;10.878;2023-09-18T04:44:31;5.03;;;1.55;;
80725;SDS011;70113;59.928;10.878;2023-09-18T04:46:56;3.08;;;0.88;;
80725;SDS011;70113;59.928;10.878;2023-09-18T04:49:23;3.33;;;0.75;;
80725;SDS011;70113;59.928;10.878;2023-09-18T04:51:49;1.77;;;0.73;;
80725;SDS011;70113;59.928;10.878;2023-09-18T04:54:14;2.67;;;0.80;;
80725;SDS011;70113;59.928;10.878;2023-09-18T04:56:40;2.63;;;0.85;;
80725;SDS011;70113;59.928;10.878;2023-09-18T04:59:06;3.00;;;1.00;;
80725;SDS011;70113;59.928;10.878;2023-09-18T05:01:32;1.88;;;0.70;;
80725;SDS011;70113;59.928;10.878;2023-09-18T05:03:58;4.20;;;1.15;;
80725;SDS011;70113;59.928;10.878;2023-09-18T05:06:23;3.55;;;0.98;;
80725;SDS011;70113;59.928;10.878;2023-09-18T05:08:49;3.08;;;0.85;;
80725;SDS011;70113;59.928;10.878;2023-09-18T05:11:15;2.72;;;0.93;;
80725;SDS011;70113;59.928;10.878;2023-09-18T05:13:42;1.50;;;0.73;;
80725;SDS011;70113;59.928;10.878;2023-09-18T05:16:07;1.65;;;0.63;;
80725;SDS011;70113;59.928;10.878;2023-09-18T05:18:33;2.22;;;0.98;;
80725;SDS011;70113;59.928;10.878;2023-09-18T05:20:58;2.67;;;0.98;;
80725;SDS011;70113;59.928;10.878;2023-09-18T05:23:24;8.60;;;1.10;;
80725;SDS011;70113;59.928;10.878;2023-09-18T05:25:50;3.55;;;1.00;;
80725;SDS011;70113;59.928;10.878;2023-09-18T05:28:15;3.67;;;0.90;;
80725;SDS011;70113;59.928;10.878;2023-09-18T05:30:41;4.43;;;1.30;;
80725;SDS011;70113;59.928;10.878;2023-09-18T05:33:07;2.65;;;1.10;;
80725;SDS011;70113;59.928;10.878;2023-09-18T05:35:40;4.30;;;1.20;;
80725;SDS011;70113;59.928;10.878;2023-09-18T05:38:08;2.78;;;1.00;;
80725;SDS011;70113;59.928;10.878;2023-09-18T05:40:36;4.03;;;1.17;;
80725;SDS011;70113;59.928;10.878;2023-09-18T05:43:02;3.60;;;0.95;;
80725;SDS011;70113;59.928;10.878;2023-09-18T05:45:27;6.50;;;1.15;;
80725;SDS011;70113;59.928;10.878;2023-09-18T05:47:54;4.10;;;1.02;;
80725;SDS011;70113;59.928;10.878;2023-09-18T05:50:27;3.85;;;1.10;;
80725;SDS011;70113;59.928;10.878;2023-09-18T05:52:55;4.65;;;1.02;;
80725;SDS011;70113;59.928;10.878;2023-09-18T05:55:24;2.72;;;0.90;;
80725;SDS011;70113;59.928;10.878;2023-09-18T05:57:50;3.88;;;1.10;;
80725;SDS011;70113;59.928;10.878;2023-09-18T06:00:16;3.05;;;1.13;;
80725;SDS011;70113;59.928;10.878;2023-09-18T06:02:43;4.07;;;1.02;;
80725;SDS011;70113;59.928;10.878;2023-09-18T06:05:10;2.72;;;1.10;;
80725;SDS011;70113;59.928;10.878;2023-09-18T06:07:37;2.63;;;1.00;;
80725;SDS011;70113;59.928;10.878;2023-09-18T06:10:02;3.65;;;1.60;;
80725;SDS011;70113;59.928;10.878;2023-09-18T06:12:29;3.17;;;1.10;;
80725;SDS011;70113;59.928;10.878;2023-09-18T06:14:55;3.42;;;1.20;;
80725;SDS011;70113;59.928;10.878;2023-09-18T06:17:21;4.50;;;1.30;;
80725;SDS011;70113;59.928;10.878;2023-09-18T06:19:46;5.30;;;1.40;;
80725;SDS011;70113;59.928;10.878;2023-09-18T06:22:12;2.90;;;1.25;;
80725;SDS011;70113;59.928;10.878;2023-09-18T06:24:38;3.30;;;1.20;;
80725;SDS011;70113;59.928;10.878;2023-09-18T06:27:04;4.35;;;1.52;;
80725;SDS011;70113;59.928;10.878;2023-09-18T06:29:30;4.25;;;1.60;;
80725;SDS011;70113;59.928;10.878;2023-09-18T06:31:57;3.92;;;1.40;;
80725;SDS011;70113;59.928;10.878;2023-09-18T06:34:23;5.63;;;1.60;;
80725;SDS011;70113;59.928;10.878;2023-09-18T06:36:49;6.07;;;1.67;;
80725;SDS011;70113;59.928;10.878;2023-09-18T06:39:14;5.95;;;1.60;;
80725;SDS011;70113;59.928;10.878;2023-09-18T06:41:40;3.95;;;1.70;;
80725;SDS011;70113;59.928;10.878;2023-09-18T06:44:06;4.78;;;1.63;;
80725;SDS011;70113;59.928;10.878;2023-09-18T06:46:32;5.65;;;1.77;;
80725;SDS011;70113;59.928;10.878;2023-09-18T06:48:57;4.30;;;1.60;;
80725;SDS011;70113;59.928;10.878;2023-09-18T06:51:26;5.32;;;1.77;;
80725;SDS011;70113;59.928;10.878;2023-09-18T06:53:53;5.57;;;1.83;;
80725;SDS011;70113;59.928;10.878;2023-09-18T06:56:19;4.18;;;1.85;;
80725;SDS011;70113;59.928;10.878;2023-09-18T06:58:45;4.82;;;1.88;;
80725;SDS011;70113;59.928;10.878;2023-09-18T07:01:13;5.55;;;1.90;;
80725;SDS011;70113;59.928;10.878;2023-09-18T07:03:40;4.32;;;1.90;;
80725;SDS011;70113;59.928;10.878;2023-09-18T07:06:06;5.07;;;1.90;;
80725;SDS011;70113;59.928;10.878;2023-09-18T07:51:31;4.93;;;2.25;;
80725;SDS011;70113;59.928;10.878;2023-09-18T07:53:58;6.32;;;2.90;;
80725;SDS011;70113;59.928;10.878;2023-09-18T07:56:23;5.60;;;2.50;;
80725;SDS011;70113;59.928;10.878;2023-09-18T07:58:49;4.75;;;2.72;;
80725;SDS011;70113;59.928;10.878;2023-09-18T08:01:14;5.18;;;2.70;;
80725;SDS011;70113;59.928;10.878;2023-09-18T08:03:42;5.47;;;2.78;;
80725;SDS011;70113;59.928;10.878;2023-09-18T08:06:07;7.57;;;3.17;;
80725;SDS011;70113;59.928;10.878;2023-09-18T08:08:33;5.30;;;2.72;;
80725;SDS011;70113;59.928;10.878;2023-09-18T08:11:00;6.90;;;2.88;;
80725;SDS011;70113;59.928;10.878;2023-09-18T08:13:33;8.85;;;3.10;;
80725;SDS011;70113;59.928;10.878;2023-09-18T08:15:59;6.28;;;3.00;;
80725;SDS011;70113;59.928;10.878;2023-09-18T08:18:25;5.00;;;2.50;;
80725;SDS011;70113;59.928;10.878;2023-09-18T08:20:52;7.13;;;3.58;;
80725;SDS011;70113;59.928;10.878;2023-09-18T08:23:19;7.15;;;3.05;;
80725;SDS011;70113;59.928;10.878;2023-09-18T08:25:44;7.43;;;2.97;;
80725;SDS011;70113;59.928;10.878;2023-09-18T08:28:10;7.15;;;2.83;;
80725;SDS011;70113;59.928;10.878;2023-09-18T08:30:36;6.65;;;2.78;;
80725;SDS011;70113;59.928;10.878;2023-09-18T08:33:03;5.22;;;3.10;;
80725;SDS011;70113;59.928;10.878;2023-09-18T08:35:28;5.20;;;2.75;;
80725;SDS011;70113;59.928;10.878;2023-09-18T08:37:55;5.35;;;2.78;;
80725;SDS011;70113;59.928;10.878;2023-09-18T08:40:22;4.40;;;3.00;;
80725;SDS011;70113;59.928;10.878;2023-09-18T08:42:48;7.82;;;3.00;;
80725;SDS011;70113;59.928;10.878;2023-09-18T08:48:13;6.85;;;3.40;;
80725;SDS011;70113;59.928;10.878;2023-09-18T08:50:38;5.18;;;2.58;;
80725;SDS011;70113;59.928;10.878;2023-09-18T08:53:06;5.20;;;2.53;;
80725;SDS011;70113;59.928;10.878;2023-09-18T08:55:31;5.97;;;3.13;;
80725;SDS011;70113;59.928;10.878;2023-09-18T08:57:59;5.45;;;2.70;;
80725;SDS011;70113;59.928;10.878;2023-09-18T09:00:26;6.15;;;3.35;;
80725;SDS011;70113;59.928;10.878;2023-09-18T09:02:52;6.38;;;3.20;;
80725;SDS011;70113;59.928;10.878;2023-09-18T09:05:20;6.10;;;3.20;;
80725;SDS011;70113;59.928;10.878;2023-09-18T09:07:46;6.93;;;3.38;;
80725;SDS011;70113;59.928;10.878;2023-09-18T09:10:12;7.97;;;3.60;;
80725;SDS011;70113;59.928;10.878;2023-09-18T09:12:48;5.40;;;2.85;;
80725;SDS011;70113;59.928;10.878;2023-09-18T09:15:14;5.85;;;3.35;;
80725;SDS011;70113;59.928;10.878;2023-09-18T09:17:40;5.60;;;2.80;;
80725;SDS011;70113;59.928;10.878;2023-09-18T09:20:10;6.85;;;2.92;;
80725;SDS011;70113;59.928;10.878;2023-09-18T09:22:38;5.47;;;2.47;;
80725;SDS011;70113;59.928;10.878;2023-09-18T09:27:47;5.90;;;2.87;;
80725;SDS011;70113;59.928;10.878;2023-09-18T09:30:18;4.88;;;2.97;;
80725;SDS011;70113;59.928;10.878;2023-09-18T09:32:47;9.25;;;3.40;;
80725;SDS011;70113;59.928;10.878;2023-09-18T09:35:34;5.70;;;3.05;;
80725;SDS011;70113;59.928;10.878;2023-09-18T09:38:01;8.90;;;2.92;;
80725;SDS011;70113;59.928;10.878;2023-09-18T09:40:28;5.65;;;3.03;;
80725;SDS011;70113;59.928;10.878;2023-09-18T09:42:56;5.78;;;3.20;;
80725;SDS011;70113;59.928;10.878;2023-09-18T09:45:29;5.07;;;2.80;;
80725;SDS011;70113;59.928;10.878;2023-09-18T09:47:56;5.25;;;2.65;;
80725;SDS011;70113;59.928;10.878;2023-09-18T09:50:23;6.38;;;3.20;;
80725;SDS011;70113;59.928;10.878;2023-09-18T10:54:27;6.68;;;2.30;;
80725;SDS011;70113;59.928;10.878;2023-09-18T10:56:55;7.25;;;2.40;;
80725;SDS011;70113;59.928;10.878;2023-09-18T10:59:22;4.93;;;2.40;;
80725;SDS011;70113;59.928;10.878;2023-09-18T11:01:48;5.57;;;2.70;;
80725;SDS011;70113;59.928;10.878;2023-09-18T11:04:17;5.25;;;2.17;;
80725;SDS011;70113;59.928;10.878;2023-09-18T11:09:22;6.57;;;2.85;;
80725;SDS011;70113;59.928;10.878;2023-09-18T11:12:08;7.00;;;2.40;;
80725;SDS011;70113;59.928;10.878;2023-09-18T11:14:49;5.00;;;2.10;;
80725;SDS011;70113;59.928;10.878;2023-09-18T11:17:42;5.38;;;2.60;;
80725;SDS011;70113;59.928;10.878;2023-09-18T11:22:47;6.18;;;2.38;;
80725;SDS011;70113;59.928;10.878;2023-09-18T11:28:12;4.68;;;2.05;;
80725;SDS011;70113;59.928;10.878;2023-09-18T11:30:49;4.90;;;1.92;;
80725;SDS011;70113;59.928;10.878;2023-09-18T11:33:16;4.65;;;2.05;;
80725;SDS011;70113;59.928;10.878;2023-09-18T11:35:55;4.32;;;1.98;;
80725;SDS011;70113;59.928;10.878;2023-09-18T11:38:21;4.40;;;2.03;;
80725;SDS011;70113;59.928;10.878;2023-09-18T11:40:48;5.82;;;2.17;;
80725;SDS011;70113;59.928;10.878;2023-09-18T11:43:21;5.00;;;2.30;;
80725;SDS011;70113;59.928;10.878;2023-09-18T11:45:58;5.88;;;2.33;;
80725;SDS011;70113;59.928;10.878;2023-09-18T11:48:25;5.35;;;2.08;;
80725;SDS011;70113;59.928;10.878;2023-09-18T11:50:56;4.40;;;1.83;;
80725;SDS011;70113;59.928;10.878;2023-09-18T11:53:24;4.72;;;1.80;;
80725;SDS011;70113;59.928;10.878;2023-09-18T11:55:51;4.05;;;1.83;;
80725;SDS011;70113;59.928;10.878;2023-09-18T11:58:17;4.90;;;2.10;;
80725;SDS011;70113;59.928;10.878;2023-09-18T12:00:45;4.93;;;2.33;;
80725;SDS011;70113;59.928;10.878;2023-09-18T12:03:17;5.43;;;1.98;;
80725;SDS011;70113;59.928;10.878;2023-09-18T12:05:57;4.03;;;1.88;;
80725;SDS011;70113;59.928;10.878;2023-09-18T12:08:26;5.15;;;1.50;;
80725;SDS011;70113;59.928;10.878;2023-09-18T12:10:54;4.18;;;1.60;;
80725;SDS011;70113;59.928;10.878;2023-09-18T12:13:20;5.68;;;1.60;;
80725;SDS011;70113;59.928;10.878;2023-09-18T12:15:47;2.75;;;1.38;;
80725;SDS011;70113;59.928;10.878;2023-09-18T12:18:15;2.53;;;1.23;;
80725;SDS011;70113;59.928;10.878;2023-09-18T12:20:44;2.90;;;1.20;;
80725;SDS011;70113;59.928;10.878;2023-09-18T12:23:11;11.40;;;1.65;;
80725;SDS011;70113;59.928;10.878;2023-09-18T12:25:38;2.60;;;1.10;;
80725;SDS011;70113;59.928;10.878;2023-09-18T12:28:05;3.67;;;1.33;;
80725;SDS011;70113;59.928;10.878;2023-09-18T12:30:32;3.83;;;1.20;;
80725;SDS011;70113;59.928;10.878;2023-09-18T12:32:59;2.63;;;0.95;;
80725;SDS011;70113;59.928;10.878;2023-09-18T12:35:29;3.30;;;1.15;;
80725;SDS011;70113;59.928;10.878;2023-09-18T12:37:56;2.85;;;1.00;;
80725;SDS011;70113;59.928;10.878;2023-09-18T12:40:24;2.55;;;1.13;;
80725;SDS011;70113;59.928;10.878;2023-09-18T12:42:51;4.03;;;1.17;;
80725;SDS011;70113;59.928;10.878;2023-09-18T12:45:19;2.97;;;1.02;;
80725;SDS011;70113;59.928;10.878;2023-09-18T12:47:45;3.28;;;1.15;;
80725;SDS011;70113;59.928;10.878;2023-09-18T12:50:14;2.42;;;1.00;;
80725;SDS011;70113;59.928;10.878;2023-09-18T12:52:40;3.50;;;1.38;;
80725;SDS011;70113;59.928;10.878;2023-09-18T12:57:34;2.70;;;1.30;;
80725;SDS011;70113;59.928;10.878;2023-09-18T13:00:07;2.35;;;1.10;;
80725;SDS011;70113;59.928;10.878;2023-09-18T13:02:36;3.38;;;1.50;;
80725;SDS011;70113;59.928;10.878;2023-09-18T13:05:03;2.95;;;1.30;;
80725;SDS011;70113;59.928;10.878;2023-09-18T13:07:29;3.63;;;1.73;;
80725;SDS011;70113;59.928;10.878;2023-09-18T13:10:16;3.25;;;1.45;;
80725;SDS011;70113;59.928;10.878;2023-09-18T13:12:48;3.92;;;1.13;;
80725;SDS011;70113;59.928;10.878;2023-09-18T13:15:25;3.83;;;1.48;;
80725;SDS011;70113;59.928;10.878;2023-09-18T13:17:53;3.38;;;1.60;;
80725;SDS011;70113;59.928;10.878;2023-09-18T13:20:23;2.90;;;1.30;;
80725;SDS011;70113;59.928;10.878;2023-09-18T13:22:51;3.63;;;1.60;;
80725;SDS011;70113;59.928;10.878;2023-09-18T13:25:20;3.70;;;1.55;;
80725;SDS011;70113;59.928;10.878;2023-09-18T13:27:47;4.95;;;1.80;;
80725;SDS011;70113;59.928;10.878;2023-09-18T13:30:14;5.03;;;1.67;;
80725;SDS011;70113;59.928;10.878;2023-09-18T13:32:43;4.78;;;1.75;;
80725;SDS011;70113;59.928;10.878;2023-09-18T13:35:10;4.40;;;1.88;;
80725;SDS011;70113;59.928;10.878;2023-09-18T13:37:39;4.82;;;1.77;;
80725;SDS011;70113;59.928;10.878;2023-09-18T13:40:05;4.60;;;2.00;;
80725;SDS011;70113;59.928;10.878;2023-09-18T13:42:34;6.45;;;2.30;;
80725;SDS011;70113;59.928;10.878;2023-09-18T13:45:01;3.80;;;1.70;;
80725;SDS011;70113;59.928;10.878;2023-09-18T13:47:27;4.75;;;2.30;;
80725;SDS011;70113;59.928;10.878;2023-09-18T13:49:55;4.32;;;2.10;;
80725;SDS011;70113;59.928;10.878;2023-09-18T13:52:27;3.60;;;1.80;;
80725;SDS011;70113;59.928;10.878;2023-09-18T13:54:54;5.28;;;2.10;;
80725;SDS011;70113;59.928;10.878;2023-09-18T13:57:20;4.60;;;1.67;;
80725;SDS011;70113;59.928;10.878;2023-09-18T13:59:47;5.28;;;1.80;;
80725;SDS011;70113;59.928;10.878;2023-09-18T14:02:14;5.50;;;1.98;;
80725;SDS011;70113;59.928;10.878;2023-09-18T14:04:41;5.25;;;1.83;;
80725;SDS011;70113;59.928;10.878;2023-09-18T14:07:08;6.88;;;1.98;;
80725;SDS011;70113;59.928;10.878;2023-09-18T14:09:34;4.93;;;2.00;;
80725;SDS011;70113;59.928;10.878;2023-09-18T14:12:00;4.85;;;2.30;;
80725;SDS011;70113;59.928;10.878;2023-09-18T14:14:26;4.60;;;2.20;;
80725;SDS011;70113;59.928;10.878;2023-09-18T14:16:52;4.90;;;2.15;;
80725;SDS011;70113;59.928;10.878;2023-09-18T14:19:19;5.50;;;2.08;;
80725;SDS011;70113;59.928;10.878;2023-09-18T14:21:45;4.40;;;2.15;;
80725;SDS011;70113;59.928;10.878;2023-09-18T14:24:11;5.55;;;2.45;;
80725;SDS011;70113;59.928;10.878;2023-09-18T14:26:36;5.47;;;2.22;;
80725;SDS011;70113;59.928;10.878;2023-09-18T14:29:09;5.18;;;2.25;;
80725;SDS011;70113;59.928;10.878;2023-09-18T14:31:36;6.47;;;2.70;;
80725;SDS011;70113;59.928;10.878;2023-09-18T14:34:02;5.40;;;1.90;;
80725;SDS011;70113;59.928;10.878;2023-09-18T14:36:29;5.60;;;2.35;;
80725;SDS011;70113;59.928;10.878;2023-09-18T14:38:55;4.35;;;2.20;;
80725;SDS011;70113;59.928;10.878;2023-09-18T14:41:23;5.72;;;2.50;;
80725;SDS011;70113;59.928;10.878;2023-09-18T14:43:50;6.43;;;2.50;;
80725;SDS011;70113;59.928;10.878;2023-09-18T14:46:16;5.78;;;2.63;;
80725;SDS011;70113;59.928;10.878;2023-09-18T14:48:45;8.25;;;2.55;;
80725;SDS011;70113;59.928;10.878;2023-09-18T14:51:11;4.57;;;1.98;;
80725;SDS011;70113;59.928;10.878;2023-09-18T14:53:37;5.20;;;1.90;;
80725;SDS011;70113;59.928;10.878;2023-09-18T14:56:03;6.10;;;2.33;;
80725;SDS011;70113;59.928;10.878;2023-09-18T14:58:30;5.20;;;2.08;;
80725;SDS011;70113;59.928;10.878;2023-09-18T15:00:56;6.10;;;2.50;;
80725;SDS011;70113;59.928;10.878;2023-09-18T15:03:22;4.53;;;2.00;;
80725;SDS011;70113;59.928;10.878;2023-09-18T15:05:51;7.07;;;2.40;;
80725;SDS011;70113;59.928;10.878;2023-09-18T15:08:19;6.28;;;2.33;;
80725;SDS011;70113;59.928;10.878;2023-09-18T15:11:03;7.47;;;2.47;;
80725;SDS011;70113;59.928;10.878;2023-09-18T15:13:29;6.20;;;2.88;;
80725;SDS011;70113;59.928;10.878;2023-09-18T15:15:56;8.43;;;2.28;;
80725;SDS011;70113;59.928;10.878;2023-09-18T15:18:22;4.47;;;2.38;;
80725;SDS011;70113;59.928;10.878;2023-09-18T15:20:48;5.20;;;2.25;;
80725;SDS011;70113;59.928;10.878;2023-09-18T15:23:23;4.47;;;2.70;;
80725;SDS011;70113;59.928;10.878;2023-09-18T15:25:49;4.07;;;2.00;;
80725;SDS011;70113;59.928;10.878;2023-09-18T15:28:16;4.47;;;2.13;;
80725;SDS011;70113;59.928;10.878;2023-09-18T15:30:44;6.63;;;2.55;;
80725;SDS011;70113;59.928;10.878;2023-09-18T15:33:10;5.55;;;2.47;;
80725;SDS011;70113;59.928;10.878;2023-09-18T15:35:35;6.05;;;2.80;;
80725;SDS011;70113;59.928;10.878;2023-09-18T15:38:02;7.30;;;2.90;;
80725;SDS011;70113;59.928;10.878;2023-09-18T15:40:28;6.25;;;2.63;;
80725;SDS011;70113;59.928;10.878;2023-09-18T15:42:54;6.70;;;2.53;;
80725;SDS011;70113;59.928;10.878;2023-09-18T15:45:19;5.95;;;2.65;;
80725;SDS011;70113;59.928;10.878;2023-09-18T15:47:46;6.00;;;2.45;;
80725;SDS011;70113;59.928;10.878;2023-09-18T15:50:12;7.43;;;2.88;;
80725;SDS011;70113;59.928;10.878;2023-09-18T15:52:39;5.93;;;2.63;;
80725;SDS011;70113;59.928;10.878;2023-09-18T15:55:05;4.72;;;2.38;;
80725;SDS011;70113;59.928;10.878;2023-09-18T15:57:32;7.45;;;2.90;;
80725;SDS011;70113;59.928;10.878;2023-09-18T15:59:59;5.05;;;2.50;;
80725;SDS011;70113;59.928;10.878;2023-09-18T16:02:25;5.68;;;2.60;;
80725;SDS011;70113;59.928;10.878;2023-09-18T16:04:51;5.53;;;2.08;;
80725;SDS011;70113;59.928;10.878;2023-09-18T16:07:20;6.70;;;2.47;;
80725;SDS011;70113;59.928;10.878;2023-09-18T16:09:45;6.00;;;2.80;;
80725;SDS011;70113;59.928;10.878;2023-09-18T16:12:11;4.15;;;2.53;;
80725;SDS011;70113;59.928;10.878;2023-09-18T16:14:37;5.75;;;2.88;;
80725;SDS011;70113;59.928;10.878;2023-09-18T16:17:03;6.40;;;2.97;;
80725;SDS011;70113;59.928;10.878;2023-09-18T16:19:29;7.55;;;2.78;;
80725;SDS011;70113;59.928;10.878;2023-09-18T16:21:56;5.68;;;2.75;;
80725;SDS011;70113;59.928;10.878;2023-09-18T16:24:23;7.10;;;2.70;;
80725;SDS011;70113;59.928;10.878;2023-09-18T16:26:52;5.57;;;2.83;;
80725;SDS011;70113;59.928;10.878;2023-09-18T16:29:22;7.65;;;3.10;;
80725;SDS011;70113;59.928;10.878;2023-09-18T16:31:49;6.68;;;2.78;;
80725;SDS011;70113;59.928;10.878;2023-09-18T16:34:14;5.80;;;3.00;;
80725;SDS011;70113;59.928;10.878;2023-09-18T16:36:41;5.70;;;3.10;;
80725;SDS011;70113;59.928;10.878;2023-09-18T16:39:06;6.50;;;3.20;;
80725;SDS011;70113;59.928;10.878;2023-09-18T16:41:32;5.82;;;3.13;;
80725;SDS011;70113;59.928;10.878;2023-09-18T16:43:58;7.57;;;2.90;;
80725;SDS011;70113;59.928;10.878;2023-09-18T16:46:24;9.43;;;3.58;;
80725;SDS011;70113;59.928;10.878;2023-09-18T16:48:49;9.25;;;3.72;;
80725;SDS011;70113;59.928;10.878;2023-09-18T16:51:15;7.22;;;3.47;;
80725;SDS011;70113;59.928;10.878;2023-09-18T16:53:41;6.15;;;3.20;;
80725;SDS011;70113;59.928;10.878;2023-09-18T16:56:06;6.60;;;3.47;;
80725;SDS011;70113;59.928;10.878;2023-09-18T16:58:32;7.75;;;3.55;;
80725;SDS011;70113;59.928;10.878;2023-09-18T17:00:58;6.38;;;3.45;;
80725;SDS011;70113;59.928;10.878;2023-09-18T17:03:23;7.13;;;4.05;;
80725;SDS011;70113;59.928;10.878;2023-09-18T17:05:49;7.28;;;4.63;;